Time;durP1;ratioP1;P1;durP2;ratioP2;P2;SDS_P1;SDS_P2;PMS_P1;PMS_P2;Temp;Humidity;BMP_temperature;BMP_pressure;BME280_temperature;BME280_humidity;BME280_pressure;Samples;Min_cycle;Max_cycle;Signal;HPM_P1;HPM_P2
2023/05/17 05:00:15;;;;;;;;;23.33;19.00;;;;;13.14;61.44;102360.78;6147885;22;46706;-59
2023/05/17 05:02:41;;;;;;;;;22.33;19.00;;;;;13.16;61.17;102364.28;6240765;22;45477;-60
2023/05/17 05:05:08;;;;;;;;;24.00;18.67;;;;;13.10;61.27;102366.28;6245728;22;45372;-60
2023/05/17 05:07:33;;;;;;;;;20.00;18.00;;;;;13.08;61.74;102369.03;6245269;22;45304;-60
2023/05/17 05:09:59;;;;;;;;;26.00;19.67;;;;;13.11;61.96;102379.59;6218211;22;45288;-60
2023/05/17 05:12:24;;;;;;;;;23.33;21.00;;;;;13.14;61.86;102373.25;6214645;22;68586;-59
2023/05/17 05:14:49;;;;;;;;;25.33;23.00;;;;;13.19;61.63;102379.31;6242673;22;46813;-61
2023/05/17 05:17:15;;;;;;;;;21.00;19.33;;;;;13.24;61.62;102378.25;6243294;22;69644;-59
2023/05/17 05:19:40;;;;;;;;;21.00;19.33;;;;;13.30;61.44;102371.78;6245357;22;45411;-59
2023/05/17 05:22:07;;;;;;;;;20.00;18.00;;;;;13.37;60.98;102386.69;6245548;22;45316;-59
2023/05/17 05:24:32;;;;;;;;;16.00;16.00;;;;;13.48;61.07;102383.66;6217124;22;74094;-60
2023/05/17 05:26:57;;;;;;;;;18.33;17.00;;;;;13.64;60.98;102381.25;6243842;22;51048;-60
2023/05/17 05:29:23;;;;;;;;;21.00;17.00;;;;;13.82;60.38;102382.38;6217994;22;45275;-59
2023/05/17 05:31:48;;;;;;;;;21.33;19.00;;;;;13.93;60.07;102378.41;6243081;22;70022;-59
2023/05/17 05:34:13;;;;;;;;;25.67;21.00;;;;;13.98;59.70;102381.78;6242746;22;66745;-60
2023/05/17 05:36:39;;;;;;;;;26.33;23.33;;;;;13.96;59.99;102392.53;6242369;22;48450;-60
2023/05/17 05:39:04;;;;;;;;;24.00;24.00;;;;;13.91;59.82;102397.19;6244390;22;56097;-60
2023/05/17 05:41:30;;;;;;;;;23.67;19.00;;;;;13.90;59.70;102393.63;6245178;22;45337;-60
2023/05/17 05:43:55;;;;;;;;;23.00;22.00;;;;;13.90;59.76;102392.75;6242510;22;46848;-59
2023/05/17 05:46:20;;;;;;;;;23.00;20.33;;;;;13.86;59.69;102399.16;6243712;22;66832;-60
2023/05/17 05:48:46;;;;;;;;;18.33;16.67;;;;;13.88;59.24;102398.19;6217800;22;45287;-60
2023/05/17 05:51:11;;;;;;;;;21.33;19.00;;;;;13.95;59.23;102406.84;6244621;22;67869;-60
2023/05/17 05:53:37;;;;;;;;;23.33;17.67;;;;;14.04;59.22;102408.25;6244789;22;45247;-59
2023/05/17 05:56:03;;;;;;;;;24.67;20.33;;;;;14.10;59.48;102409.84;6244811;22;45299;-60
2023/05/17 05:58:29;;;;;;;;;20.67;18.33;;;;;14.18;59.24;102413.06;6217962;22;45259;-59
2023/05/17 06:00:56;;;;;;;;;24.00;23.33;;;;;14.26;58.85;102416.31;6243675;22;45291;-60
2023/05/17 06:03:21;;;;;;;;;26.67;20.33;;;;;14.35;58.82;102421.31;6244702;22;45352;-60
2023/05/17 06:05:46;;;;;;;;;25.33;23.00;;;;;14.43;58.42;102425.47;6244557;22;45590;-60
2023/05/17 06:08:12;;;;;;;;;27.67;23.33;;;;;14.47;57.99;102430.66;6218150;22;47542;-60
2023/05/17 06:10:37;;;;;;;;;26.67;20.00;;;;;14.47;58.08;102435.13;6243360;22;66726;-59
2023/05/17 06:13:02;;;;;;;;;23.33;21.33;;;;;14.54;57.96;102423.25;6244151;22;65238;-59
2023/05/17 06:15:30;;;;;;;;;19.33;19.00;;;;;14.58;57.60;102438.25;6244744;22;45298;-59
2023/05/17 06:17:55;;;;;;;;;26.33;22.33;;;;;14.65;57.54;102441.56;6244212;22;45643;-58
2023/05/17 06:20:20;;;;;;;;;24.00;23.00;;;;;14.78;58.01;102445.47;6244643;22;61447;-59
2023/05/17 06:22:46;;;;;;;;;25.00;21.67;;;;;14.94;57.37;102442.16;6216178;22;48124;-59
2023/05/17 06:25:11;;;;;;;;;21.33;20.33;;;;;15.12;56.21;102438.69;6217999;22;45392;-58
2023/05/17 06:27:37;;;;;;;;;24.67;21.00;;;;;15.29;55.83;102439.75;6244223;22;54430;-59
2023/05/17 06:30:03;;;;;;;;;22.00;19.33;;;;;15.53;55.73;102448.53;6247426;22;45295;-58
2023/05/17 06:32:29;;;;;;;;;23.00;15.00;;;;;16.35;54.78;102442.09;6246201;22;46303;-58
2023/05/17 06:34:55;;;;;;;;;19.67;18.67;;;;;17.75;54.22;102450.16;6244387;22;45341;-59
2023/05/17 06:37:20;;;;;;;;;18.67;15.67;;;;;19.26;49.04;102435.28;6246448;22;45334;-61
2023/05/17 06:39:46;;;;;;;;;18.67;15.00;;;;;20.63;49.54;102441.91;6218590;22;45284;-61
2023/05/17 06:42:11;;;;;;;;;15.00;11.33;;;;;22.01;45.36;102448.66;6245960;22;56807;-62
2023/05/17 06:44:36;;;;;;;;;9.67;9.67;;;;;23.16;42.60;102443.72;6244189;22;71588;-62
2023/05/17 06:47:02;;;;;;;;;3.33;1.00;;;;;24.25;37.51;102447.69;6217519;22;47794;-62
2023/05/17 06:49:28;;;;;;;;;14.67;14.00;;;;;24.97;36.54;102456.25;6218427;22;45384;-59
2023/05/17 06:51:54;;;;;;;;;15.33;14.00;;;;;25.32;37.98;102452.31;6243789;22;73843;-60
2023/05/17 06:54:19;;;;;;;;;12.67;11.67;;;;;25.77;36.62;102448.41;6193252;22;45762;-59
2023/05/17 06:56:45;;;;;;;;;13.00;11.67;;;;;26.54;36.15;102444.19;6245466;22;48066;-60
2023/05/17 06:59:10;;;;;;;;;14.00;13.67;;;;;27.26;33.44;102446.59;6242449;22;63285;-60
2023/05/17 07:01:35;;;;;;;;;17.00;12.33;;;;;27.77;34.19;102451.75;6241730;22;64961;-60
2023/05/17 07:04:01;;;;;;;;;13.33;12.67;;;;;28.25;32.11;102463.47;6243621;22;45326;-60
2023/05/17 07:06:26;;;;;;;;;9.00;9.00;;;;;28.61;33.02;102463.50;6242355;22;65746;-60
2023/05/17 07:08:52;;;;;;;;;12.33;11.00;;;;;29.11;31.03;102460.22;6242837;22;45366;-60
2023/05/17 07:11:17;;;;;;;;;11.00;8.67;;;;;29.52;29.78;102465.97;6215945;22;48443;-60
2023/05/17 07:13:43;;;;;;;;;15.00;11.00;;;;;30.11;29.94;102462.50;6243434;22;46900;-60
2023/05/17 07:16:09;;;;;;;;;11.00;9.33;;;;;30.52;27.97;102472.75;6244580;22;46015;-60
2023/05/17 07:18:34;;;;;;;;;12.67;9.00;;;;;30.69;28.03;102468.13;6219994;22;46087;-60
2023/05/17 07:20:59;;;;;;;;;10.50;9.25;;;;;30.99;27.38;102455.59;6245970;22;45617;-60
2023/05/17 07:23:25;;;;;;;;;9.75;9.75;;;;;31.41;28.62;102467.41;6245687;22;49603;-60
2023/05/17 07:25:50;;;;;;;;;10.00;9.33;;;;;31.85;26.02;102460.59;6245510;22;45306;-61
2023/05/17 07:28:15;;;;;;;;;10.50;8.75;;;;;32.28;26.77;102473.97;6244816;22;63947;-61
2023/05/17 07:30:41;;;;;;;;;9.00;9.00;;;;;32.63;24.26;102479.94;6216328;22;58546;-62
2023/05/17 07:33:06;;;;;;;;;9.00;8.00;;;;;33.18;25.51;102475.19;6244661;22;63949;-62
2023/05/17 07:35:31;;;;;;;;;14.33;10.67;;;;;33.61;24.05;102472.69;6245363;22;66061;-62
2023/05/17 07:37:57;;;;;;;;;8.00;8.00;;;;;33.79;23.33;102480.63;6240487;22;59177;-62
2023/05/17 07:40:22;;;;;;;;;11.33;9.67;;;;;33.78;23.60;102484.38;6240930;22;74551;-62
2023/05/17 07:42:47;;;;;;;;;7.00;7.00;;;;;34.22;20.32;102488.13;6240219;22;45386;-62
2023/05/17 07:45:13;;;;;;;;;10.25;10.00;;;;;34.35;22.13;102495.72;6243008;22;45792;-62
2023/05/17 07:47:38;;;;;;;;;14.75;7.50;;;;;34.49;21.87;102488.47;6242341;22;60203;-62
2023/05/17 07:50:04;;;;;;;;;8.75;5.75;;;;;35.00;22.05;102492.16;6241500;22;71911;-62
2023/05/17 07:52:29;;;;;;;;;13.00;10.25;;;;;35.82;22.14;102486.97;6242617;22;45385;-62
2023/05/17 07:54:54;;;;;;;;;8.25;8.00;;;;;36.04;20.50;102488.59;6243033;22;45381;-62
2023/05/17 07:57:20;;;;;;;;;11.00;11.00;;;;;35.71;19.50;102492.03;6241400;22;60935;-61
2023/05/17 07:59:45;;;;;;;;;8.00;7.00;;;;;35.88;19.32;102487.03;6244681;22;45845;-62
2023/05/17 08:02:10;;;;;;;;;14.00;12.67;;;;;36.17;19.90;102490.53;6244352;22;68502;-62
2023/05/17 08:04:36;;;;;;;;;8.00;7.00;;;;;36.75;20.17;102500.28;6242523;22;66444;-62
2023/05/17 08:07:02;;;;;;;;;16.50;11.75;;;;;37.23;17.94;102496.47;6215917;22;45538;-62
2023/05/17 08:09:27;;;;;;;;;4.75;3.50;;;;;37.64;18.64;102494.47;6215697;22;45721;-62
2023/05/17 08:11:52;;;;;;;;;12.50;10.25;;;;;37.00;18.02;102494.13;6242913;22;57164;-62
2023/05/17 08:14:21;;;;;;;;;8.50;8.50;;;;;36.16;17.94;102497.13;6245014;22;66654;-62
2023/05/17 08:16:46;;;;;;;;;9.50;8.25;;;;;34.46;18.76;102506.28;6218021;22;45304;-61
2023/05/17 08:19:13;;;;;;;;;8.00;7.33;;;;;33.36;19.37;102504.34;6244844;22;65012;-61
2023/05/17 08:21:39;;;;;;;;;5.75;5.75;;;;;33.76;19.97;102494.72;6244761;22;45401;-61
2023/05/17 08:24:05;;;;;;;;;8.25;7.75;;;;;35.19;19.75;102501.66;6218890;22;45488;-61
2023/05/17 08:26:31;;;;;;;;;8.75;8.00;;;;;36.10;19.56;102487.75;6218088;22;45271;-61
2023/05/17 08:28:56;;;;;;;;;8.00;8.00;;;;;37.60;17.74;102487.66;6244501;22;62653;-61
2023/05/17 08:31:21;;;;;;;;;10.00;9.00;;;;;39.23;18.62;102493.78;6245969;22;45327;-62
2023/05/17 08:33:47;;;;;;;;;8.50;7.00;;;;;40.40;16.03;102483.56;6244608;22;67734;-62
2023/05/17 08:36:12;;;;;;;;;6.50;6.25;;;;;41.00;15.56;102484.56;6244988;22;61808;-62
2023/05/17 08:38:37;;;;;;;;;5.50;5.50;;;;;41.96;15.25;102484.22;6245276;22;45201;-62
2023/05/17 08:41:03;;;;;;;;;6.25;5.00;;;;;42.83;14.82;102483.28;6244848;22;51828;-62
2023/05/17 08:43:30;;;;;;;;;4.25;4.25;;;;;43.34;12.42;102486.88;6245247;22;45688;-62
2023/05/17 08:45:56;;;;;;;;;6.00;6.00;;;;;43.66;14.44;102486.19;6244046;22;45781;-62
2023/05/17 08:48:23;;;;;;;;;6.25;6.00;;;;;44.19;13.35;102471.69;6243332;22;45437;-61
2023/05/17 08:50:50;;;;;;;;;4.75;4.75;;;;;45.08;11.79;102480.56;6243806;22;45401;-62
2023/05/17 08:53:16;;;;;;;;;4.75;4.75;;;;;45.79;13.47;102470.84;6218083;22;45337;-62
2023/05/17 08:55:44;;;;;;;;;7.25;6.50;;;;;46.70;11.47;102461.97;6245040;22;45356;-62
2023/05/17 08:58:09;;;;;;;;;8.25;7.00;;;;;47.15;12.13;102470.63;6245536;22;46197;-62
2023/05/17 09:00:35;;;;;;;;;3.00;3.00;;;;;47.40;9.97;102469.69;6216864;22;57941;-62
2023/05/17 09:03:00;;;;;;;;;4.50;4.00;;;;;47.41;10.01;102473.31;6245096;22;60209;-60
2023/05/17 09:05:27;;;;;;;;;4.00;4.00;;;;;47.49;10.13;102470.78;6243608;22;53029;-62
2023/05/17 09:07:53;;;;;;;;;6.00;5.75;;;;;47.66;10.19;102466.78;6244644;22;47129;-62
2023/05/17 09:10:19;;;;;;;;;7.50;5.50;;;;;47.62;8.60;102463.69;6217025;22;45320;-63
2023/05/17 09:12:44;;;;;;;;;3.00;1.25;;;;;47.42;10.02;102467.47;6243036;22;45581;-64
2023/05/17 09:15:18;;;;;;;;;5.25;3.50;;;;;47.49;10.11;102469.97;6245384;22;45295;-63
2023/05/17 09:17:53;;;;;;;;;6.00;5.50;;;;;47.46;9.33;102456.44;6217605;22;47125;-63
2023/05/17 09:20:24;;;;;;;;;4.25;3.00;;;;;47.46;9.47;102462.06;6244973;22;45255;-63
2023/05/17 09:22:50;;;;;;;;;3.75;3.25;;;;;47.66;9.77;102461.13;6244941;22;45304;-63
2023/05/17 09:25:22;;;;;;;;;4.75;4.00;;;;;47.83;9.34;102457.97;6244568;22;45279;-63
2023/05/17 09:27:47;;;;;;;;;5.00;5.00;;;;;48.01;9.68;102459.25;6217337;22;45879;-63
2023/05/17 09:30:12;;;;;;;;;3.50;3.50;;;;;48.17;9.59;102455.19;6243840;22;45263;-63
2023/05/17 09:32:46;;;;;;;;;4.00;4.00;;;;;48.43;7.92;102457.78;6244487;22;45287;-63
2023/05/17 09:35:11;;;;;;;;;4.00;4.00;;;;;48.82;8.58;102465.34;6218229;22;45321;-63
2023/05/17 09:37:38;;;;;;;;;6.00;3.25;;;;;48.71;9.09;102455.28;6244172;22;45886;-63
2023/05/17 09:40:06;;;;;;;;;5.25;5.00;;;;;48.52;8.07;102464.47;6242985;22;45411;-63
2023/05/17 09:42:36;;;;;;;;;4.00;4.00;;;;;48.11;8.54;102455.50;6217824;22;45323;-63
2023/05/17 09:45:01;;;;;;;;;4.75;3.00;;;;;48.28;8.63;102461.59;6217418;22;45448;-63
2023/05/17 09:47:28;;;;;;;;;3.00;1.25;;;;;48.05;7.39;102465.97;6244918;22;45753;-62
2023/05/17 09:49:59;;;;;;;;;6.00;5.25;;;;;49.25;8.40;102455.28;6216571;22;45353;-63
2023/05/17 09:52:30;;;;;;;;;6.00;5.00;;;;;49.89;8.92;102447.34;6217425;22;45408;-63
2023/05/17 09:54:57;;;;;;;;;3.25;3.00;;;;;50.32;7.21;102452.88;6243282;22;46152;-63
2023/05/17 09:57:25;;;;;;;;;3.00;2.50;;;;;49.77;7.26;102452.63;6244878;22;46281;-63
2023/05/17 09:59:54;;;;;;;;;7.25;3.50;;;;;49.38;7.37;102450.88;6244323;22;45247;-63
2023/05/17 10:02:26;;;;;;;;;6.75;3.75;;;;;49.81;8.38;102440.41;6243654;22;45528;-63
2023/05/17 10:04:55;;;;;;;;;4.50;3.00;;;;;50.04;8.22;102449.13;6243928;22;45507;-63
2023/05/17 10:07:21;;;;;;;;;3.50;3.50;;;;;50.50;7.88;102441.84;6243590;22;45271;-63
2023/05/17 10:09:48;;;;;;;;;4.25;4.25;;;;;50.72;6.81;102446.84;6216325;22;45323;-63
2023/05/17 10:12:20;;;;;;;;;2.00;2.00;;;;;51.21;7.32;102443.59;6244361;22;45448;-63
2023/05/17 10:14:46;;;;;;;;;4.50;3.75;;;;;50.98;7.09;102443.47;6242962;22;45410;-63
2023/05/17 10:17:12;;;;;;;;;2.00;2.00;;;;;50.60;7.25;102447.31;6243246;22;50029;-64
2023/05/17 10:19:38;;;;;;;;;5.00;2.50;;;;;48.96;7.08;102444.88;6215994;22;45284;-63
2023/05/17 10:22:05;;;;;;;;;2.25;2.25;;;;;47.60;7.52;102436.94;6243250;22;64822;-64
2023/05/17 10:24:30;;;;;;;;;2.50;2.00;;;;;47.98;8.10;102446.59;6244901;22;45377;-64
2023/05/17 10:26:56;;;;;;;;;2.00;2.00;;;;;49.11;7.88;102441.06;6242948;22;56911;-64
2023/05/17 10:29:22;;;;;;;;;3.00;2.00;;;;;50.07;6.19;102428.72;6242720;22;73373;-64
2023/05/17 10:31:52;;;;;;;;;2.75;2.50;;;;;49.91;6.61;102430.94;6216708;22;45334;-64
2023/05/17 10:34:18;;;;;;;;;2.00;2.00;;;;;50.11;7.19;102426.94;6244053;22;45611;-64
2023/05/17 10:36:44;;;;;;;;;3.75;2.75;;;;;50.90;7.39;102419.59;6243334;22;45926;-64
2023/05/17 10:39:10;;;;;;;;;2.75;2.75;;;;;51.88;6.80;102416.56;6243858;22;45302;-64
2023/05/17 10:41:45;;;;;;;;;2.75;2.75;;;;;52.87;5.29;102410.84;6216248;22;45218;-63
2023/05/17 10:44:15;;;;;;;;;3.00;1.75;;;;;53.04;5.51;102406.38;6215441;22;45622;-63
2023/05/17 10:46:50;;;;;;;;;3.25;1.75;;;;;53.27;6.17;102412.78;6215268;22;45968;-63
2023/05/17 10:49:16;;;;;;;;;0.40;0.40;;;;;53.80;5.83;102405.16;6243396;22;45305;-63
2023/05/17 10:51:41;;;;;;;;;0.00;0.00;;;;;53.69;4.01;102413.16;6240186;22;61353;-63
2023/05/17 10:54:12;;;;;;;;;1.00;1.00;;;;;53.27;5.89;102409.94;6189890;22;45803;-63
2023/05/17 10:56:40;;;;;;;;;0.50;0.50;;;;;52.10;5.09;102408.09;6242637;22;46856;-63
2023/05/17 10:59:28;;;;;;;;;2.00;2.00;;;;;48.88;6.40;102398.41;6243721;22;45283;-63
2023/05/17 11:02:22;;;;;;;;;5.50;1.50;;;;;45.78;7.77;102398.03;6236194;22;45440;-63
2023/05/17 11:04:52;;;;;;;;;1.00;1.00;;;;;42.21;9.47;102398.34;6238360;22;45733;-62
2023/05/17 11:07:20;;;;;;;;;1.75;1.75;;;;;39.83;10.45;102400.38;6242349;22;45632;-62
2023/05/17 11:09:55;;;;;;;;;5.75;1.75;;;;;37.47;11.56;102399.78;6241957;22;45640;-62
2023/05/17 11:12:36;;;;;;;;;2.00;2.00;;;;;35.01;13.16;102395.22;6214972;22;45495;-61
2023/05/17 11:15:09;;;;;;;;;3.75;2.75;;;;;32.69;14.94;102395.75;6243747;22;45402;-61
2023/05/17 11:17:35;;;;;;;;;0.50;0.50;;;;;30.98;16.54;102395.34;6244146;22;46124;-61
2023/05/17 11:20:05;;;;;;;;;1.00;0.50;;;;;29.61;17.43;102409.31;6216606;22;45246;-61
2023/05/17 11:22:36;;;;;;;;;4.00;2.75;;;;;28.49;17.86;102408.16;6243136;22;45351;-61
2023/05/17 11:25:05;;;;;;;;;2.75;2.75;;;;;27.55;20.07;102391.88;6243068;22;45692;-61
2023/05/17 11:27:36;;;;;;;;;2.00;2.00;;;;;26.72;21.09;102392.50;6244381;22;46388;-61
2023/05/17 11:30:29;;;;;;;;;3.00;3.00;;;;;26.18;21.16;102394.78;6244198;22;45389;-60
2023/05/17 11:33:01;;;;;;;;;4.25;2.00;;;;;27.00;21.10;102386.28;6236930;22;45258;-61
2023/05/17 11:35:37;;;;;;;;;3.00;3.00;;;;;28.22;19.97;102393.53;6241535;22;45571;-60
2023/05/17 11:38:20;;;;;;;;;3.33;2.00;;;;;27.84;19.79;102381.81;6214803;22;46292;-61
2023/05/17 11:40:49;;;;;;;;;4.00;2.33;;;;;30.80;18.32;102373.56;6241301;22;45599;-61
2023/05/17 11:43:15;;;;;;;;;3.00;3.00;;;;;33.70;16.59;102365.88;6244482;22;45752;-61
2023/05/17 11:45:47;;;;;;;;;4.25;3.00;;;;;35.97;14.60;102368.72;6216592;22;45637;-61
2023/05/17 11:48:13;;;;;;;;;2.00;2.00;;;;;37.43;13.48;102368.00;6244230;22;45872;-60
2023/05/17 11:50:39;;;;;;;;;3.00;2.75;;;;;38.84;13.44;102368.81;6242563;22;45741;-61
2023/05/17 11:53:06;;;;;;;;;2.75;2.00;;;;;40.34;12.12;102367.53;6215475;22;45368;-60
2023/05/17 11:55:34;;;;;;;;;2.25;2.25;;;;;39.49;12.33;102361.00;6215684;22;45636;-60
2023/05/17 11:58:00;;;;;;;;;2.00;2.00;;;;;37.25;12.78;102355.69;6214978;22;47050;-59
2023/05/17 12:00:28;;;;;;;;;1.00;1.00;;;;;35.22;14.49;102363.88;6216256;22;59901;-60
2023/05/17 12:02:54;;;;;;;;;1.75;1.75;;;;;35.00;14.94;102354.81;6244482;22;45691;-61
2023/05/17 12:05:20;;;;;;;;;5.00;3.25;;;;;35.23;14.49;102353.69;6246575;22;45380;-62
2023/05/17 12:07:46;;;;;;;;;2.25;1.75;;;;;36.78;14.12;102341.03;6245114;22;45327;-62
2023/05/17 12:10:12;;;;;;;;;3.25;3.00;;;;;35.13;14.14;102339.38;6244397;22;45683;-60
2023/05/17 12:12:37;;;;;;;;;1.00;1.00;;;;;32.80;15.88;102341.09;6243505;22;58111;-60
2023/05/17 12:15:03;;;;;;;;;3.00;2.00;;;;;31.06;17.45;102340.41;6216645;22;72335;-60
2023/05/17 12:17:34;;;;;;;;;0.00;0.00;;;;;30.27;17.83;102349.22;6217795;22;45567;-60
2023/05/17 12:20:07;;;;;;;;;2.00;2.00;;;;;28.97;18.89;102340.28;6244643;22;45334;-59
2023/05/17 12:22:32;;;;;;;;;3.00;3.00;;;;;27.99;20.42;102341.13;6217950;22;45358;-61
2023/05/17 12:24:58;;;;;;;;;2.00;2.00;;;;;27.79;21.37;102341.25;6243479;22;62674;-62
2023/05/17 12:27:25;;;;;;;;;1.75;1.75;;;;;27.45;21.57;102352.81;6245736;22;71333;-61
2023/05/17 12:29:50;;;;;;;;;2.50;1.50;;;;;26.88;21.37;102352.84;6244589;22;45299;-60
2023/05/17 12:32:15;;;;;;;;;4.00;3.25;;;;;26.21;22.49;102350.84;6219594;22;45422;-60
2023/05/17 12:34:41;;;;;;;;;2.00;2.00;;;;;25.65;22.50;102354.19;6243000;22;68178;-60
2023/05/17 12:37:09;;;;;;;;;2.50;2.50;;;;;25.36;24.13;102352.22;6192228;22;74824;-60
2023/05/17 12:39:34;;;;;;;;;2.00;2.00;;;;;25.26;25.08;102350.25;6217560;22;45337;-60
2023/05/17 12:42:00;;;;;;;;;2.00;2.00;;;;;25.36;23.93;102347.63;6245213;22;45294;-60
2023/05/17 12:44:26;;;;;;;;;3.00;2.00;;;;;25.43;23.91;102339.75;6244678;22;45531;-61
2023/05/17 12:46:54;;;;;;;;;3.33;2.00;;;;;25.25;24.50;102339.50;6217836;22;46490;-59
2023/05/17 12:49:20;;;;;;;;;2.50;2.25;;;;;24.90;25.74;102344.34;6217909;22;45479;-60
2023/05/17 12:51:46;;;;;;;;;2.33;2.33;;;;;24.71;25.12;102336.06;6217528;22;45695;-58
2023/05/17 12:54:15;;;;;;;;;3.00;3.00;;;;;24.54;25.42;102338.34;6245675;22;45356;-59
2023/05/17 12:56:42;;;;;;;;;3.50;1.50;;;;;24.58;25.63;102334.34;6243411;22;46816;-59
2023/05/17 12:59:17;;;;;;;;;3.33;2.33;;;;;24.66;24.90;102330.16;6244336;22;45475;-60
2023/05/17 13:01:47;;;;;;;;;3.00;3.00;;;;;24.60;25.43;102328.78;6242715;22;45407;-59
2023/05/17 13:04:13;;;;;;;;;2.00;2.00;;;;;24.59;25.68;102333.38;6242638;22;45527;-59
2023/05/17 13:06:47;;;;;;;;;3.00;2.25;;;;;24.68;25.58;102318.16;6242461;22;45303;-59
2023/05/17 13:09:14;;;;;;;;;3.00;3.00;;;;;24.96;25.61;102325.75;6242212;22;45264;-58
2023/05/17 13:11:40;;;;;;;;;3.00;3.00;;;;;24.97;25.13;102332.94;6241047;22;45274;-57
2023/05/17 13:14:11;;;;;;;;;3.00;1.00;;;;;24.69;25.28;102321.72;6242176;22;45452;-57
2023/05/17 13:16:37;;;;;;;;;1.00;1.00;;;;;24.38;26.20;102332.47;6214411;22;45424;-57
2023/05/17 13:19:11;;;;;;;;;2.00;2.00;;;;;24.24;26.31;102342.66;6241356;22;45472;-57
2023/05/17 13:21:36;;;;;;;;;2.00;2.00;;;;;23.91;27.19;102346.34;6240040;22;45593;-57
2023/05/17 13:24:02;;;;;;;;;2.33;2.00;;;;;23.73;26.92;102330.56;6240036;22;45690;-56
2023/05/17 13:26:27;;;;;;;;;2.00;2.00;;;;;23.41;27.78;102327.75;6240577;22;46060;-57
2023/05/17 13:28:52;;;;;;;;;2.00;2.00;;;;;23.23;27.11;102333.69;6239434;22;58691;-55
2023/05/17 13:31:18;;;;;;;;;2.00;2.00;;;;;23.03;27.94;102328.97;6241964;22;45255;-57
2023/05/17 13:33:43;;;;;;;;;1.67;1.00;;;;;23.00;27.83;102327.34;6214636;22;61870;-57
2023/05/17 13:36:09;;;;;;;;;3.00;1.67;;;;;23.06;27.61;102320.56;6242168;22;46102;-57
2023/05/17 13:38:35;;;;;;;;;3.00;2.00;;;;;23.26;27.53;102314.44;6215344;22;45272;-57
2023/05/17 13:41:00;;;;;;;;;1.67;1.67;;;;;23.64;27.19;102311.47;6242390;22;45385;-57
2023/05/17 13:43:25;;;;;;;;;3.00;3.00;;;;;24.01;27.07;102313.84;6242815;22;45445;-57
2023/05/17 13:45:55;;;;;;;;;2.00;2.00;;;;;24.11;26.71;102312.09;6242494;22;46021;-59
2023/05/17 13:48:21;;;;;;;;;2.33;2.00;;;;;24.00;26.54;102309.41;6242601;22;45284;-58
2023/05/17 13:50:46;;;;;;;;;1.00;1.00;;;;;24.01;26.55;102322.00;6214754;22;45420;-57
2023/05/17 13:53:11;;;;;;;;;4.00;2.67;;;;;23.92;26.69;102313.66;6242787;22;45486;-57
2023/05/17 13:55:38;;;;;;;;;1.67;1.33;;;;;23.86;26.79;102314.13;6214785;22;47040;-57
2023/05/17 13:58:03;;;;;;;;;4.00;2.00;;;;;23.75;26.72;102308.69;6242497;22;45347;-57
2023/05/17 14:00:29;;;;;;;;;2.00;2.00;;;;;23.50;27.18;102304.44;6215253;22;50580;-57
2023/05/17 14:02:54;;;;;;;;;2.00;2.00;;;;;23.33;27.37;102313.97;6192592;22;1220310;-57
2023/05/17 14:05:19;;;;;;;;;3.67;2.00;;;;;23.39;27.43;102305.31;6246741;22;45833;-57
2023/05/17 14:07:45;;;;;;;;;3.00;3.00;;;;;23.70;27.55;102300.97;6217690;22;45587;-57
2023/05/17 14:10:13;;;;;;;;;3.67;2.00;;;;;23.99;27.30;102299.53;6244269;22;45386;-58
2023/05/17 14:12:39;;;;;;;;;3.33;2.00;;;;;23.99;27.21;102292.25;6242278;22;45276;-56
2023/05/17 14:15:06;;;;;;;;;2.00;2.00;;;;;23.85;27.42;102303.38;6242228;22;46122;-56
2023/05/17 14:17:32;;;;;;;;;2.00;2.00;;;;;23.94;27.06;102291.78;6242779;22;45389;-56
2023/05/17 14:19:57;;;;;;;;;4.00;3.00;;;;;23.89;26.99;102300.25;6242389;22;45422;-57
2023/05/17 14:22:23;;;;;;;;;2.33;2.00;;;;;23.78;27.22;102290.31;6243055;22;45292;-57
2023/05/17 14:24:48;;;;;;;;;4.00;1.67;;;;;23.67;27.33;102284.91;6241740;22;46136;-57
2023/05/17 14:27:14;;;;;;;;;2.00;2.00;;;;;23.43;27.75;102301.38;6243242;22;45268;-57
2023/05/17 14:29:39;;;;;;;;;3.00;2.67;;;;;22.96;29.18;102287.91;6244289;22;45287;-56
2023/05/17 14:32:05;;;;;;;;;1.00;1.00;;;;;22.73;28.84;102298.69;6245138;22;61292;-57
2023/05/17 14:34:30;;;;;;;;;2.00;2.00;;;;;22.52;28.67;102293.09;6245490;22;46181;-56
2023/05/17 14:36:56;;;;;;;;;3.00;3.00;;;;;22.43;29.04;102281.13;6243487;22;69866;-57
2023/05/17 14:39:21;;;;;;;;;5.00;3.00;;;;;22.45;29.49;102281.03;6244235;22;65868;-57
2023/05/17 14:41:46;;;;;;;;;2.33;2.33;;;;;22.59;29.53;102275.41;6243139;22;69887;-55
2023/05/17 14:44:13;;;;;;;;;4.00;3.00;;;;;22.53;29.09;102275.88;6244078;22;73788;-55
2023/05/17 14:46:38;;;;;;;;;3.00;3.00;;;;;22.44;29.62;102274.72;6245644;22;45342;-56
2023/05/17 14:49:05;;;;;;;;;3.00;3.00;;;;;22.40;29.85;102266.97;6245563;22;67062;-57
2023/05/17 14:51:30;;;;;;;;;3.00;3.00;;;;;22.61;29.07;102269.84;6246606;22;45260;-56
2023/05/17 14:53:56;;;;;;;;;1.33;1.33;;;;;22.88;28.99;102263.22;6246255;22;45940;-57
2023/05/17 14:56:22;;;;;;;;;6.00;3.00;;;;;23.12;28.76;102265.81;6246098;22;45350;-54
2023/05/17 14:58:48;;;;;;;;;3.00;3.00;;;;;23.22;28.20;102263.25;6246201;22;45414;-55
2023/05/17 15:01:14;;;;;;;;;3.33;3.00;;;;;23.27;28.73;102270.03;6219311;22;45557;-55
2023/05/17 15:03:39;;;;;;;;;5.00;2.00;;;;;23.37;28.78;102255.72;6246046;22;45756;-57
2023/05/17 15:06:05;;;;;;;;;3.67;2.33;;;;;23.49;28.81;102262.84;6246230;22;45224;-55
2023/05/17 15:08:30;;;;;;;;;3.00;3.00;;;;;23.53;29.03;102263.44;6246793;22;45370;-59
2023/05/17 15:10:56;;;;;;;;;2.33;2.00;;;;;23.49;28.76;102272.84;6244745;22;67004;-57
2023/05/17 15:13:22;;;;;;;;;7.00;4.00;;;;;23.35;28.88;102257.69;6246020;22;45899;-56
2023/05/17 15:15:47;;;;;;;;;6.33;4.33;;;;;23.24;29.30;102277.56;6246016;22;45562;-56
2023/05/17 15:18:13;;;;;;;;;3.33;2.33;;;;;23.16;29.26;102263.75;6244299;22;57660;-56
2023/05/17 15:20:39;;;;;;;;;3.00;3.00;;;;;23.05;29.35;102268.16;6245890;22;45251;-56
2023/05/17 15:23:05;;;;;;;;;2.00;2.00;;;;;22.88;29.38;102257.78;6246563;22;45985;-56
2023/05/17 15:25:30;;;;;;;;;5.67;4.00;;;;;22.69;29.65;102267.38;6244973;22;67488;-56
2023/05/17 15:27:56;;;;;;;;;3.33;3.33;;;;;22.48;30.07;102264.53;6245933;22;45254;-56
2023/05/17 15:30:26;;;;;;;;;4.33;4.33;;;;;22.39;30.27;102248.97;6245990;22;45534;-56
2023/05/17 15:32:52;;;;;;;;;6.33;3.33;;;;;22.42;31.16;102246.00;6219977;22;45320;-55
2023/05/17 15:35:17;;;;;;;;;5.33;4.67;;;;;22.51;30.80;102236.31;6246474;22;45336;-56
2023/05/17 15:37:43;;;;;;;;;3.00;3.00;;;;;22.48;30.94;102232.00;6244865;22;57997;-56
2023/05/17 15:40:09;;;;;;;;;4.00;4.00;;;;;22.35;30.75;102242.03;6217743;22;69651;-55
2023/05/17 15:42:35;;;;;;;;;2.00;2.00;;;;;22.24;30.55;102246.44;6245320;22;47045;-57
2023/05/17 15:45:00;;;;;;;;;2.67;2.00;;;;;22.17;31.71;102244.31;6245885;22;45299;-58
2023/05/17 15:47:25;;;;;;;;;4.67;4.67;;;;;22.15;31.21;102241.72;6219309;22;45361;-58
2023/05/17 15:49:51;;;;;;;;;2.67;2.00;;;;;22.19;30.86;102237.81;6244597;22;70122;-57
2023/05/17 15:52:16;;;;;;;;;5.00;4.00;;;;;22.33;30.78;102244.00;6246073;22;45284;-58
2023/05/17 15:54:41;;;;;;;;;3.00;3.00;;;;;22.55;30.04;102235.94;6245036;22;60494;-57
2023/05/17 15:57:07;;;;;;;;;5.33;3.00;;;;;22.76;30.16;102229.78;6245597;22;45298;-57
2023/05/17 15:59:33;;;;;;;;;5.67;4.00;;;;;22.95;30.02;102234.63;6245643;22;45340;-57
2023/05/17 16:01:58;;;;;;;;;4.00;4.00;;;;;23.07;30.01;102233.63;6245190;22;47047;-58
2023/05/17 16:04:23;;;;;;;;;4.00;4.00;;;;;23.20;29.65;102228.09;6245329;22;69694;-58
2023/05/17 16:06:49;;;;;;;;;5.33;3.67;;;;;23.23;29.07;102238.72;6217925;22;67430;-57
2023/05/17 16:09:14;;;;;;;;;4.00;4.00;;;;;23.17;29.19;102233.78;6246517;22;45652;-58
2023/05/17 16:11:40;;;;;;;;;5.00;3.00;;;;;23.07;29.25;102239.03;6245624;22;46183;-57
2023/05/17 16:14:05;;;;;;;;;5.00;4.00;;;;;22.82;29.19;102223.88;6246399;22;45345;-58
2023/05/17 16:16:31;;;;;;;;;7.00;6.00;;;;;22.55;29.61;102225.09;6245633;22;63659;-58
2023/05/17 16:18:56;;;;;;;;;5.33;4.67;;;;;22.31;30.01;102228.72;6245415;22;45093;-58